createdAt,value
2019-05-16T00:01:00.051Z,96680.63
2019-05-16T00:03:30.373Z,96680.63
2019-05-16T00:06:00.644Z,96675.12
2019-05-16T00:08:30.968Z,96672.36
2019-05-16T00:11:01.334Z,96668.95
2019-05-16T00:13:31.452Z,96668.63
2019-05-16T00:16:01.844Z,96666.98
2019-05-16T00:18:32.468Z,96662.97
2019-05-16T00:21:02.627Z,96659.44
2019-05-16T00:23:33.049Z,96664.25
2019-05-16T00:26:03.277Z,96664.45
2019-05-16T00:28:33.765Z,96660.75
2019-05-16T00:31:03.986Z,96656.73
2019-05-16T00:33:34.316Z,96642.76
2019-05-16T00:36:05.984Z,96650.31
2019-05-16T00:38:37.950Z,96645.78
2019-05-16T00:41:08.684Z,96647.19
2019-05-16T00:43:38.892Z,96645.78
2019-05-16T00:46:09.211Z,96646.58
2019-05-16T00:48:39.556Z,96645.13
2019-05-16T00:51:10.096Z,96636.78
2019-05-16T00:53:40.492Z,96637.58
2019-05-16T00:56:11.052Z,96632.57
2019-05-16T00:58:42.058Z,96635.27
2019-05-16T01:01:12.529Z,96633.50
2019-05-16T01:03:42.740Z,96633.34
2019-05-16T01:06:18.605Z,96635.06
2019-05-16T01:08:44.994Z,96630.09
2019-05-16T01:11:15.255Z,96624.30
2019-05-16T01:13:45.540Z,96619.61
2019-05-16T01:16:15.865Z,96626.39
2019-05-16T01:18:48.412Z,96621.06
2019-05-16T01:21:18.574Z,96617.01
2019-05-16T01:23:49.264Z,96621.02
2019-05-16T01:26:19.266Z,96620.51
2019-05-16T01:28:49.266Z,96624.61
2019-05-16T01:31:19.450Z,96621.20
2019-05-16T01:33:49.783Z,96622.81
2019-05-16T01:36:33.317Z,96619.28
2019-05-16T01:38:51.570Z,96615.55
2019-05-16T01:41:21.644Z,96611.66
2019-05-16T01:43:51.828Z,96606.64
2019-05-16T01:46:21.804Z,96614.16
2019-05-16T01:48:51.879Z,96606.25
2019-05-16T01:51:22.194Z,96609.78
2019-05-16T01:53:52.878Z,96599.72
2019-05-16T01:56:22.820Z,96600.17
2019-05-16T01:58:52.858Z,96597.56
2019-05-16T02:01:22.909Z,96597.89
2019-05-16T02:03:52.995Z,96596.12
2019-05-16T02:06:23.267Z,96590.78
2019-05-16T02:08:53.526Z,96594.48
2019-05-16T02:11:23.649Z,96593.64
2019-05-16T02:13:53.945Z,96589.91
2019-05-16T02:16:24.259Z,96589.27
2019-05-16T02:18:54.886Z,96581.20
2019-05-16T02:21:25.158Z,96585.18
2019-05-16T02:23:58.371Z,96583.66
2019-05-16T02:26:28.354Z,96579.81
2019-05-16T02:29:00.678Z,96580.58
2019-05-16T02:31:31.425Z,96572.67
2019-05-16T02:34:04.766Z,96575.65
2019-05-16T02:36:33.849Z,96580.78
2019-05-16T02:39:05.366Z,96576.09
2019-05-16T02:41:35.733Z,96573.65
2019-05-16T02:44:06.258Z,96571.69
2019-05-16T02:46:36.573Z,96569.91
2019-05-16T02:49:35.247Z,96570.97
2019-05-16T02:52:05.662Z,96564.27
2019-05-16T02:54:35.888Z,96558.45
2019-05-16T02:57:06.147Z,96557.98
2019-05-16T02:59:36.371Z,96555.37
2019-05-16T03:02:06.878Z,96558.14
2019-05-16T03:04:40.079Z,96549.27
2019-05-16T03:07:13.514Z,96549.72
2019-05-16T03:09:44.177Z,96551.64
2019-05-16T03:12:14.910Z,96545.50
2019-05-16T03:14:47.082Z,96543.06
2019-05-16T03:17:21.740Z,96536.29
2019-05-16T03:19:56.228Z,96536.61
2019-05-16T03:22:31.574Z,96532.72
2019-05-16T03:25:01.791Z,96525.02
2019-05-16T03:27:32.060Z,96528.55
2019-05-16T03:30:02.712Z,96527.27
2019-05-16T03:32:34.393Z,96522.33
2019-05-16T03:35:06.395Z,96526.83
2019-05-16T03:37:51.375Z,96520.88
2019-05-16T03:40:11.037Z,96515.72
2019-05-16T03:42:41.597Z,96514.75
2019-05-16T03:45:12.377Z,96511.74
2019-05-16T03:47:43.129Z,96507.22
2019-05-16T03:50:13.444Z,96507.05
2019-05-16T03:52:44.037Z,96513.47
2019-05-16T03:55:14.579Z,96513.31
2019-05-16T03:57:44.611Z,96510.10
2019-05-16T04:00:15.128Z,96517.36
2019-05-16T04:02:45.847Z,96508.25
2019-05-16T04:05:16.353Z,96510.89
2019-05-16T04:07:46.673Z,96509.48
2019-05-16T04:10:16.825Z,96506.15
2019-05-16T04:12:46.853Z,96503.49
2019-05-16T04:15:17.007Z,96499.20
2019-05-16T04:17:47.291Z,96498.91
2019-05-16T04:20:17.722Z,96503.64
2019-05-16T04:22:47.676Z,96504.80
2019-05-16T04:25:17.859Z,96510.45
2019-05-16T04:27:50.169Z,96509.20
2019-05-16T04:30:22.060Z,96504.74
2019-05-16T04:32:52.418Z,96502.69
2019-05-16T04:35:22.674Z,96502.59
2019-05-16T04:37:52.771Z,96499.77
2019-05-16T04:40:23.015Z,96498.23
2019-05-16T04:42:53.240Z,96500.88
2019-05-16T04:45:23.563Z,96502.38
2019-05-16T04:47:53.955Z,96499.53
2019-05-16T04:50:24.176Z,96496.55
2019-05-16T04:52:54.503Z,96497.54
2019-05-16T04:55:24.654Z,96501.27
2019-05-16T04:57:54.837Z,96500.05
2019-05-16T05:00:26.703Z,96502.67
2019-05-16T05:02:57.032Z,96498.69
2019-05-16T05:05:27.653Z,96499.05
2019-05-16T05:08:01.297Z,96497.79
2019-05-16T05:10:31.198Z,96496.86
2019-05-16T05:13:01.917Z,96490.04
2019-05-16T05:15:33.285Z,96495.21
2019-05-16T05:18:03.564Z,96490.94
2019-05-16T05:20:33.732Z,96483.45
2019-05-16T05:23:03.851Z,96483.50
2019-05-16T05:25:33.968Z,96483.55
2019-05-16T05:28:04.190Z,96481.20
2019-05-16T05:30:34.487Z,96478.98
2019-05-16T05:33:05.256Z,96477.94
2019-05-16T05:35:35.438Z,96477.64
2019-05-16T05:38:05.761Z,96477.70
2019-05-16T05:40:36.018Z,96478.07
2019-05-16T05:43:06.508Z,96477.64
2019-05-16T05:45:36.934Z,96487.52
2019-05-16T05:48:07.259Z,96487.55
2019-05-16T05:50:40.007Z,96480.69
2019-05-16T05:53:10.174Z,96485.72
2019-05-16T05:55:40.630Z,96487.37
2019-05-16T05:58:11.032Z,96486.78
2019-05-16T06:00:41.555Z,96479.25
2019-05-16T06:03:11.902Z,96476.23
2019-05-16T06:05:42.088Z,96475.97
2019-05-16T06:08:12.208Z,96474.38
2019-05-16T06:10:42.466Z,96478.31
2019-05-16T06:13:12.408Z,96475.78
2019-05-16T06:15:42.711Z,96478.63
2019-05-16T06:18:13.110Z,96475.98
2019-05-16T06:20:43.830Z,96474.80
2019-05-16T06:23:14.089Z,96471.47
2019-05-16T06:25:50.872Z,96481.32
2019-05-16T06:28:21.431Z,96469.70
2019-05-16T06:30:52.188Z,96475.69
2019-05-16T06:33:22.654Z,96475.50
2019-05-16T06:35:52.723Z,96468.21
2019-05-16T06:38:22.770Z,96471.44
2019-05-16T06:40:53.094Z,96466.13
2019-05-16T06:43:22.997Z,96469.55
2019-05-16T06:45:53.028Z,96463.65
2019-05-16T06:48:23.065Z,96464.83
2019-05-16T06:50:53.459Z,96466.51
2019-05-16T06:53:23.613Z,96463.81
2019-05-16T06:55:53.898Z,96461.48
2019-05-16T06:58:24.022Z,96463.77
2019-05-16T07:00:54.126Z,96462.00
2019-05-16T07:03:24.561Z,96463.31
2019-05-16T07:05:54.713Z,96459.63
2019-05-16T07:08:24.946Z,96459.77
2019-05-16T07:10:55.332Z,96462.98
2019-05-16T07:13:25.581Z,96469.42
2019-05-16T07:15:55.913Z,96467.67
2019-05-16T07:18:26.234Z,96462.20
2019-05-16T07:20:56.456Z,96463.97
2019-05-16T07:23:26.789Z,96464.62
2019-05-16T07:25:57.067Z,96454.41
2019-05-16T07:28:27.224Z,96454.56
2019-05-16T07:30:57.556Z,96456.81
2019-05-16T07:33:28.084Z,96451.98
2019-05-16T07:36:00.374Z,96450.98
2019-05-16T07:38:31.201Z,96454.35
2019-05-16T07:41:01.508Z,96450.81
2019-05-16T07:43:32.148Z,96448.89
2019-05-16T07:46:03.655Z,96451.53
2019-05-16T07:48:33.812Z,96445.94
2019-05-16T07:51:04.245Z,96442.17
2019-05-16T07:53:34.322Z,96441.57
2019-05-16T07:56:04.751Z,96441.29
2019-05-16T07:58:35.029Z,96442.52
2019-05-16T08:01:09.018Z,96441.75
2019-05-16T08:03:38.075Z,96444.83
2019-05-16T08:06:10.860Z,96443.38
2019-05-16T08:08:40.527Z,96443.90
2019-05-16T08:11:12.101Z,96436.33
2019-05-16T08:13:42.753Z,96443.42
2019-05-16T08:16:13.706Z,96441.81
2019-05-16T08:18:45.224Z,96440.23
2019-05-16T08:21:16.925Z,96432.52
2019-05-16T08:23:50.079Z,96434.00
2019-05-16T08:26:21.904Z,96432.58
2019-05-16T08:28:51.953Z,96433.08
2019-05-16T08:31:22.234Z,96426.63
2019-05-16T08:36:24.888Z,96427.33
2019-05-16T08:38:55.234Z,96429.10
2019-05-16T08:41:25.531Z,96419.59
2019-05-16T08:43:55.955Z,96415.89
2019-05-16T08:46:31.920Z,96415.44
2019-05-16T08:49:01.192Z,96412.23
2019-05-16T08:51:33.353Z,96410.30
2019-05-16T08:54:03.818Z,96409.82
2019-05-16T08:56:34.161Z,96403.20
2019-05-16T08:59:04.611Z,96404.00
2019-05-16T09:01:35.304Z,96399.48
2019-05-16T09:04:05.572Z,96400.30
2019-05-16T09:06:36.131Z,96395.95
2019-05-16T09:09:26.487Z,96388.50
2019-05-16T09:10:38.905Z,96421.67
2019-05-16T09:11:44.633Z,96389.15
2019-05-16T09:14:12.308Z,96382.99
2019-05-16T09:16:42.538Z,96377.33
2019-05-16T09:19:12.659Z,96382.33
2019-05-16T09:21:42.932Z,96379.60
2019-05-16T09:24:13.964Z,96369.47
2019-05-16T09:26:47.179Z,96378.15
2019-05-16T09:29:16.872Z,96375.86
2019-05-16T09:32:07.302Z,96372.82
2019-05-16T09:34:19.310Z,96373.47
2019-05-16T09:36:49.627Z,96371.23
2019-05-16T09:39:19.999Z,96362.68
2019-05-16T09:41:54.928Z,96358.95
2019-05-16T09:44:22.124Z,96353.62
2019-05-16T09:46:52.293Z,96352.63
2019-05-16T09:49:24.855Z,96352.77
2019-05-16T09:51:56.636Z,96345.10
2019-05-16T09:54:27.315Z,96339.86
2019-05-16T09:56:57.786Z,96343.64
2019-05-16T09:59:28.040Z,96337.55
2019-05-16T10:01:58.371Z,96333.21
2019-05-16T10:04:28.583Z,96334.75
2019-05-16T10:06:58.978Z,96334.20
2019-05-16T10:09:41.287Z,96334.11
2019-05-16T10:12:11.430Z,96331.12
2019-05-16T10:14:33.572Z,96325.77
2019-05-16T10:17:04.270Z,96322.40
2019-05-16T10:19:36.810Z,96323.02
2019-05-16T10:22:07.481Z,96321.84
2019-05-16T10:24:37.740Z,96316.91
2019-05-16T10:27:08.140Z,96310.52
2019-05-16T10:29:38.383Z,96312.30
2019-05-16T10:32:08.471Z,96309.12
2019-05-16T10:34:38.898Z,96305.79
2019-05-16T10:37:09.223Z,96307.17
2019-05-16T10:39:39.380Z,96304.63
2019-05-16T10:42:23.448Z,96302.28
2019-05-16T10:44:41.863Z,96301.22
2019-05-16T10:47:12.184Z,96292.24
2019-05-16T10:49:42.414Z,96296.42
2019-05-16T10:52:12.627Z,96295.70
2019-05-16T10:54:55.337Z,96290.30
2019-05-16T10:57:15.185Z,96280.13
2019-05-16T10:59:58.619Z,96287.13
2019-05-16T11:02:17.487Z,96274.11
2019-05-16T11:05:00.210Z,96272.88
2019-05-16T11:07:19.762Z,96277.17
2019-05-16T11:09:57.948Z,96275.41
2019-05-16T11:12:21.687Z,96275.80
2019-05-16T11:14:51.775Z,96271.67
2019-05-16T11:17:21.988Z,96262.52
2019-05-16T11:19:52.087Z,96268.16
2019-05-16T11:22:22.047Z,96265.53
2019-05-16T11:24:52.067Z,96262.73
2019-05-16T11:27:22.127Z,96263.69
2019-05-16T11:29:52.338Z,96272.84
2019-05-16T11:32:22.482Z,96261.59
2019-05-16T11:34:52.786Z,96264.10
2019-05-16T11:37:22.874Z,96261.11
2019-05-16T11:39:54.308Z,96262.55
2019-05-16T11:42:24.370Z,96256.11
2019-05-16T11:44:54.433Z,96254.86
2019-05-16T11:47:24.498Z,96252.68
2019-05-16T11:49:56.935Z,96247.77
2019-05-16T11:52:26.513Z,96233.05
2019-05-16T11:54:57.163Z,96239.91
2019-05-16T11:57:27.320Z,96237.17
2019-05-16T11:59:57.573Z,96233.36
2019-05-16T12:02:28.108Z,96232.23
2019-05-16T12:04:58.296Z,96234.84
2019-05-16T12:07:33.243Z,96230.16
2019-05-16T12:09:59.960Z,96225.23
2019-05-16T12:12:30.088Z,96222.70
2019-05-16T12:15:01.438Z,96226.11
2019-05-16T12:17:31.491Z,96226.27
2019-05-16T12:20:01.926Z,96229.91
2019-05-16T12:22:32.263Z,96233.77
2019-05-16T12:25:02.296Z,96226.27
2019-05-16T12:27:33.808Z,96223.16
2019-05-16T12:30:12.947Z,96221.34
2019-05-16T12:32:36.744Z,96218.73
2019-05-16T12:35:08.095Z,96218.83
2019-05-16T12:37:38.235Z,96221.31
2019-05-16T12:40:09.779Z,96223.37
2019-05-16T12:42:39.893Z,96218.33
2019-05-16T12:45:10.643Z,96208.19
2019-05-16T12:47:40.855Z,96210.89
2019-05-16T12:50:12.726Z,96209.81
2019-05-16T12:52:43.105Z,96206.22
2019-05-16T12:55:16.430Z,96205.08
2019-05-16T12:57:48.901Z,96201.77
2019-05-16T13:00:20.453Z,96203.37
2019-05-16T13:02:50.648Z,96196.78
2019-05-16T13:05:22.948Z,96194.77
2019-05-16T13:07:53.182Z,96191.25
2019-05-16T13:10:23.424Z,96190.16
2019-05-16T13:12:53.686Z,96193.15
2019-05-16T13:15:24.150Z,96185.62
2019-05-16T13:17:57.009Z,96182.95
2019-05-16T13:20:26.837Z,96183.70
2019-05-16T13:22:57.067Z,96182.46
2019-05-16T13:25:27.455Z,96176.63
2019-05-16T13:27:57.983Z,96171.55
2019-05-16T13:30:28.418Z,96168.97
2019-05-16T13:32:58.733Z,96170.16
2019-05-16T13:35:29.146Z,96160.86
2019-05-16T13:37:59.284Z,96161.18
2019-05-16T13:40:29.614Z,96155.31
2019-05-16T13:42:59.863Z,96151.34
2019-05-16T13:45:30.561Z,96147.84
2019-05-16T13:48:00.792Z,96148.77
2019-05-16T13:50:31.560Z,96145.94
2019-05-16T13:53:01.940Z,96138.70
2019-05-16T13:55:32.212Z,96134.04
2019-05-16T13:58:02.431Z,96125.50
2019-05-16T14:00:33.164Z,96118.75
2019-05-16T14:03:03.341Z,96120.91
2019-05-16T14:05:33.599Z,96116.39
2019-05-16T14:08:06.612Z,96114.85
2019-05-16T14:10:37.498Z,96114.13
2019-05-16T14:13:07.981Z,96111.52
2019-05-16T14:15:38.025Z,96107.58
2019-05-16T14:18:08.157Z,96109.52
2019-05-16T14:20:38.232Z,96102.02
2019-05-16T14:23:09.483Z,96100.03
2019-05-16T14:25:39.654Z,96104.77
2019-05-16T14:28:09.828Z,96098.88
2019-05-16T14:30:39.962Z,96100.00
2019-05-16T14:33:13.784Z,96094.93
2019-05-16T14:35:41.853Z,96093.30
2019-05-16T14:38:11.942Z,96089.33
2019-05-16T14:40:42.085Z,96094.39
2019-05-16T14:43:12.214Z,96088.72
2019-05-16T14:45:42.267Z,96092.15
2019-05-16T14:48:12.796Z,96091.90
2019-05-16T14:50:42.893Z,96087.88
2019-05-16T14:53:13.348Z,96088.11
2019-05-16T14:55:43.529Z,96086.49
2019-05-16T14:58:13.628Z,96087.72
2019-05-16T15:00:44.246Z,96090.77
2019-05-16T15:03:14.477Z,96086.78
2019-05-16T15:05:44.657Z,96089.59
2019-05-16T15:08:17.949Z,96084.06
2019-05-16T15:10:47.107Z,96078.16
2019-05-16T15:13:17.695Z,96077.02
2019-05-16T15:15:48.036Z,96070.80
2019-05-16T15:18:18.127Z,96072.20
2019-05-16T15:20:48.080Z,96071.28
2019-05-16T15:23:18.266Z,96069.84
2019-05-16T15:25:48.312Z,96065.97
2019-05-16T15:28:18.424Z,96065.31
2019-05-16T15:30:48.740Z,96061.69
2019-05-16T15:33:19.751Z,96061.37
2019-05-16T15:35:49.885Z,96057.59
2019-05-16T15:38:19.957Z,96058.59
2019-05-16T15:40:49.959Z,96053.55
2019-05-16T15:43:20.049Z,96051.34
2019-05-16T15:45:53.126Z,96052.64
2019-05-16T15:48:22.028Z,96057.33
2019-05-16T15:50:52.420Z,96051.74
2019-05-16T15:53:22.618Z,96048.43
2019-05-16T15:55:53.753Z,96042.55
2019-05-16T15:58:28.066Z,96041.66
2019-05-16T16:01:59.732Z,96037.79
2019-05-16T16:04:37.117Z,96031.33
2019-05-16T16:11:01.637Z,96032.91
2019-05-16T16:13:31.699Z,96035.38
2019-05-16T16:16:10.197Z,96030.69
2019-05-16T16:18:40.579Z,96034.27
2019-05-16T16:21:10.700Z,96024.55
2019-05-16T16:23:40.697Z,96024.72
2019-05-16T16:26:10.814Z,96022.02
2019-05-16T16:28:41.159Z,96019.33
2019-05-16T16:31:11.280Z,96017.41
2019-05-16T16:33:41.629Z,96017.14
2019-05-16T16:36:11.688Z,96018.65
2019-05-16T16:38:42.052Z,96022.09
2019-05-16T16:41:12.310Z,96025.81
2019-05-16T16:43:42.471Z,96024.38
2019-05-16T16:46:13.743Z,96021.80
2019-05-16T16:48:44.309Z,96020.19
2019-05-16T16:51:17.394Z,96015.02
2019-05-16T16:53:46.955Z,96011.84
2019-05-16T16:56:17.463Z,96017.64
2019-05-16T16:58:47.842Z,96016.54
2019-05-16T17:01:18.085Z,96018.19
2019-05-16T17:03:48.488Z,96018.09
2019-05-16T17:06:18.914Z,96014.05
2019-05-16T17:08:49.095Z,96014.05
2019-05-16T17:11:19.243Z,96012.45
2019-05-16T17:13:49.592Z,96017.52
2019-05-16T17:16:25.848Z,96013.63
2019-05-16T17:18:51.691Z,96011.44
2019-05-16T17:21:21.892Z,96017.02
2019-05-16T17:23:52.325Z,96011.59
2019-05-16T17:26:22.624Z,96012.46
2019-05-16T17:28:52.791Z,96013.80
2019-05-16T17:31:22.885Z,96010.27
2019-05-16T17:33:53.026Z,96010.33
2019-05-16T17:36:23.178Z,96008.59
2019-05-16T17:38:53.372Z,96002.80
2019-05-16T17:41:23.330Z,96007.95
2019-05-16T17:43:56.223Z,96005.53
2019-05-16T17:46:34.783Z,96003.59
2019-05-16T17:48:57.818Z,96004.62
2019-05-16T17:51:28.175Z,96002.25
2019-05-16T17:53:58.365Z,96007.51
2019-05-16T17:56:28.673Z,95999.58
2019-05-16T17:58:59.203Z,96001.23
2019-05-16T18:01:29.426Z,96003.42
2019-05-16T18:03:59.867Z,96002.03
2019-05-16T18:06:30.178Z,95998.44
2019-05-16T18:09:07.305Z,95999.16
2019-05-16T18:11:37.738Z,95996.06
2019-05-16T18:14:08.146Z,95994.20
2019-05-16T18:17:08.731Z,96002.22
2019-05-16T18:19:43.870Z,95996.05
2019-05-16T18:22:47.132Z,96001.11
2019-05-16T18:25:23.341Z,95998.06
2019-05-16T18:27:59.285Z,95994.81
2019-05-16T18:30:47.889Z,95990.77
2019-05-16T18:34:57.691Z,95994.98
2019-05-16T18:36:02.918Z,95993.73
2019-05-16T18:39:06.590Z,95993.75
2019-05-16T18:41:49.647Z,95991.56
2019-05-16T18:44:28.742Z,95988.25
2019-05-16T18:47:06.953Z,95990.90
2019-05-16T18:49:57.918Z,95984.28
2019-05-16T18:52:53.570Z,95985.43
2019-05-16T18:57:17.530Z,95980.88
2019-05-16T18:58:46.633Z,95987.00
2019-05-16T19:03:27.527Z,95979.67
2019-05-16T19:04:57.755Z,95987.10
2019-05-16T19:08:32.270Z,95981.61
2019-05-16T19:12:17.121Z,95979.19
2019-05-16T19:15:28.375Z,95983.08
2019-05-16T19:21:50.840Z,95978.36
2019-05-16T19:24:46.763Z,95975.91
2019-05-16T19:30:28.066Z,95977.71
2019-05-16T19:36:28.719Z,95976.69
2019-05-16T19:39:28.932Z,95970.06
2019-05-16T19:42:39.904Z,95973.22
2019-05-16T19:45:50.695Z,95979.16
2019-05-16T19:48:29.061Z,95976.61
2019-05-16T19:51:24.013Z,95976.02
2019-05-16T19:54:40.308Z,95972.47
2019-05-16T19:57:28.507Z,95974.17
2019-05-16T20:00:16.999Z,95975.61
2019-05-16T20:03:17.636Z,95977.91
2019-05-16T20:06:17.236Z,95978.70
2019-05-16T20:09:07.143Z,95982.29
2019-05-16T20:11:56.902Z,95976.95
2019-05-16T20:15:09.046Z,95973.73
2019-05-16T20:17:51.998Z,95971.34
2019-05-16T20:20:44.604Z,95974.09
2019-05-16T20:24:01.985Z,95973.14
2019-05-16T20:26:57.053Z,95969.98
2019-05-16T20:29:28.735Z,95967.56
2019-05-16T20:32:44.104Z,95965.19
2019-05-16T20:35:57.280Z,95970.73
2019-05-16T20:39:08.507Z,95977.27
2019-05-16T20:42:29.798Z,95968.58
2019-05-16T20:45:29.895Z,95964.58
2019-05-16T20:51:40.543Z,95962.49
2019-05-16T20:54:38.055Z,95965.91
2019-05-16T21:00:06.966Z,95963.11
2019-05-16T21:03:06.852Z,95958.29
2019-05-16T21:05:47.850Z,95959.66
2019-05-16T21:08:07.241Z,95954.83
2019-05-16T21:10:37.771Z,95952.77
2019-05-16T21:13:08.329Z,95950.19
2019-05-16T21:15:38.869Z,95951.20
2019-05-16T21:18:09.255Z,95950.32
2019-05-16T21:20:39.580Z,95949.73
2019-05-16T21:23:09.839Z,95947.59
2019-05-16T21:25:40.161Z,95947.58
2019-05-16T21:28:10.497Z,95948.32
2019-05-16T21:30:40.913Z,95945.32
2019-05-16T21:33:11.198Z,95948.13
2019-05-16T21:35:41.625Z,95946.27
2019-05-16T21:38:12.153Z,95940.16
2019-05-16T21:40:42.728Z,95934.88
2019-05-16T21:43:12.947Z,95926.34
2019-05-16T21:45:43.167Z,95928.84
2019-05-16T21:48:13.282Z,95923.90
2019-05-16T21:50:43.298Z,95920.09
2019-05-16T21:53:13.591Z,95919.82
2019-05-16T21:55:47.060Z,95917.00
2019-05-16T21:58:16.489Z,95915.77
2019-05-16T22:00:52.341Z,95912.23
2019-05-16T22:03:22.711Z,95905.18
2019-05-16T22:05:53.229Z,95904.19
2019-05-16T22:08:23.375Z,95902.63
2019-05-16T22:10:53.596Z,95905.72
2019-05-16T22:13:23.655Z,95904.30
2019-05-16T22:15:53.878Z,95903.70
2019-05-16T22:18:25.628Z,95895.19
2019-05-16T22:20:56.973Z,95892.30
2019-05-16T22:23:37.766Z,95893.48
2019-05-16T22:26:07.658Z,95897.11
2019-05-16T22:28:37.580Z,95897.15
2019-05-16T22:31:07.883Z,95887.82
2019-05-16T22:33:37.945Z,95885.94
2019-05-16T22:36:08.241Z,95883.25
2019-05-16T22:38:38.267Z,95884.89
2019-05-16T22:41:10.750Z,95876.20
2019-05-16T22:43:40.163Z,95877.86
2019-05-16T22:46:10.566Z,95877.77
2019-05-16T22:48:40.725Z,95870.70
2019-05-16T22:51:10.951Z,95871.68
2019-05-16T22:53:41.233Z,95866.22
2019-05-16T22:56:11.492Z,95866.90
2019-05-16T22:58:41.711Z,95869.82
2019-05-16T23:01:12.246Z,95864.38
2019-05-16T23:03:42.647Z,95860.16
2019-05-16T23:06:12.894Z,95860.37
2019-05-16T23:08:43.162Z,95856.02
2019-05-16T23:11:13.330Z,95852.66
2019-05-16T23:13:46.149Z,95848.97
2019-05-16T23:16:17.182Z,95846.41
2019-05-16T23:18:47.690Z,95843.00
2019-05-16T23:21:18.003Z,95841.77
2019-05-16T23:23:48.297Z,95839.55
2019-05-16T23:26:18.518Z,95832.48
2019-05-16T23:28:49.086Z,95836.04
2019-05-16T23:31:19.268Z,95833.17
2019-05-16T23:33:49.344Z,95828.22
2019-05-16T23:36:19.374Z,95827.09
2019-05-16T23:38:49.410Z,95821.30
2019-05-16T23:41:19.342Z,95826.28
2019-05-16T23:43:49.566Z,95826.14
2019-05-16T23:46:19.866Z,95825.95
2019-05-16T23:48:49.904Z,95824.50
2019-05-16T23:51:20.114Z,95818.54
2019-05-16T23:53:50.186Z,95819.53
2019-05-16T23:56:20.207Z,95810.98
2019-05-16T23:58:50.331Z,95813.91
